sensor_id;sensor_type;location;lat;lon;timestamp;P1;durP1;ratioP1;P2;durP2;ratioP2
47365;SDS011;33105;47.964;7.982;2022-12-07T00:02:50;28.70;;;16.70;;
47365;SDS011;33105;47.964;7.982;2022-12-07T00:05:57;25.13;;;17.02;;
47365;SDS011;33105;47.964;7.982;2022-12-07T00:08:59;22.20;;;14.95;;
47365;SDS011;33105;47.964;7.982;2022-12-07T00:12:00;26.70;;;16.73;;
47365;SDS011;33105;47.964;7.982;2022-12-07T00:15:01;23.70;;;15.38;;
47365;SDS011;33105;47.964;7.982;2022-12-07T00:18:03;25.52;;;16.48;;
47365;SDS011;33105;47.964;7.982;2022-12-07T00:21:09;27.25;;;17.33;;
47365;SDS011;33105;47.964;7.982;2022-12-07T00:24:13;28.90;;;16.38;;
47365;SDS011;33105;47.964;7.982;2022-12-07T00:27:14;28.00;;;17.00;;
47365;SDS011;33105;47.964;7.982;2022-12-07T00:30:15;26.27;;;17.13;;
47365;SDS011;33105;47.964;7.982;2022-12-07T00:33:17;26.88;;;16.80;;
47365;SDS011;33105;47.964;7.982;2022-12-07T00:36:19;27.35;;;17.77;;
47365;SDS011;33105;47.964;7.982;2022-12-07T00:39:22;27.77;;;18.20;;
47365;SDS011;33105;47.964;7.982;2022-12-07T00:42:24;31.05;;;18.42;;
47365;SDS011;33105;47.964;7.982;2022-12-07T00:45:27;29.23;;;18.00;;
47365;SDS011;33105;47.964;7.982;2022-12-07T00:48:36;28.15;;;17.38;;
47365;SDS011;33105;47.964;7.982;2022-12-07T00:51:38;28.83;;;18.73;;
47365;SDS011;33105;47.964;7.982;2022-12-07T00:54:39;29.40;;;17.98;;
47365;SDS011;33105;47.964;7.982;2022-12-07T00:57:41;31.20;;;19.27;;
47365;SDS011;33105;47.964;7.982;2022-12-07T01:00:42;30.17;;;18.33;;
47365;SDS011;33105;47.964;7.982;2022-12-07T01:03:44;27.35;;;17.70;;
47365;SDS011;33105;47.964;7.982;2022-12-07T01:06:45;33.50;;;18.55;;
47365;SDS011;33105;47.964;7.982;2022-12-07T01:09:47;26.27;;;17.70;;
47365;SDS011;33105;47.964;7.982;2022-12-07T01:12:48;31.60;;;18.65;;
47365;SDS011;33105;47.964;7.982;2022-12-07T01:15:49;27.50;;;17.17;;
47365;SDS011;33105;47.964;7.982;2022-12-07T01:18:51;27.77;;;16.63;;
47365;SDS011;33105;47.964;7.982;2022-12-07T01:21:54;28.27;;;17.33;;
47365;SDS011;33105;47.964;7.982;2022-12-07T01:24:55;30.15;;;18.00;;
47365;SDS011;33105;47.964;7.982;2022-12-07T01:27:56;27.15;;;16.60;;
47365;SDS011;33105;47.964;7.982;2022-12-07T01:30:58;25.77;;;17.38;;
47365;SDS011;33105;47.964;7.982;2022-12-07T01:34:01;30.10;;;18.17;;
47365;SDS011;33105;47.964;7.982;2022-12-07T01:37:03;30.25;;;18.25;;
47365;SDS011;33105;47.964;7.982;2022-12-07T01:40:05;30.48;;;18.33;;
47365;SDS011;33105;47.964;7.982;2022-12-07T01:43:17;29.33;;;17.83;;
47365;SDS011;33105;47.964;7.982;2022-12-07T01:46:20;27.75;;;17.48;;
47365;SDS011;33105;47.964;7.982;2022-12-07T01:52:39;26.48;;;17.60;;
47365;SDS011;33105;47.964;7.982;2022-12-07T01:55:43;30.58;;;18.05;;
47365;SDS011;33105;47.964;7.982;2022-12-07T01:58:48;28.30;;;17.45;;
47365;SDS011;33105;47.964;7.982;2022-12-07T02:01:52;27.30;;;16.13;;
47365;SDS011;33105;47.964;7.982;2022-12-07T02:04:55;28.60;;;18.85;;
47365;SDS011;33105;47.964;7.982;2022-12-07T02:07:59;30.58;;;17.23;;
47365;SDS011;33105;47.964;7.982;2022-12-07T02:11:03;25.67;;;17.15;;
47365;SDS011;33105;47.964;7.982;2022-12-07T02:14:07;25.95;;;17.65;;
47365;SDS011;33105;47.964;7.982;2022-12-07T02:27:46;27.55;;;16.98;;
47365;SDS011;33105;47.964;7.982;2022-12-07T02:30:54;26.05;;;17.27;;
47365;SDS011;33105;47.964;7.982;2022-12-07T02:34:04;29.00;;;17.55;;
47365;SDS011;33105;47.964;7.982;2022-12-07T02:37:14;25.75;;;16.83;;
47365;SDS011;33105;47.964;7.982;2022-12-07T02:40:28;27.88;;;17.00;;
47365;SDS011;33105;47.964;7.982;2022-12-07T02:43:57;31.65;;;17.95;;
47365;SDS011;33105;47.964;7.982;2022-12-07T02:47:03;32.80;;;17.80;;
47365;SDS011;33105;47.964;7.982;2022-12-07T02:56:35;36.05;;;19.20;;
47365;SDS011;33105;47.964;7.982;2022-12-07T03:00:03;36.55;;;19.25;;
47365;SDS011;33105;47.964;7.982;2022-12-07T03:03:12;37.58;;;19.02;;
47365;SDS011;33105;47.964;7.982;2022-12-07T03:06:22;35.35;;;20.80;;
47365;SDS011;33105;47.964;7.982;2022-12-07T03:09:43;43.47;;;23.02;;
47365;SDS011;33105;47.964;7.982;2022-12-07T03:19:14;40.63;;;23.75;;
47365;SDS011;33105;47.964;7.982;2022-12-07T03:22:18;43.20;;;24.25;;
47365;SDS011;33105;47.964;7.982;2022-12-07T03:25:21;44.08;;;24.98;;
47365;SDS011;33105;47.964;7.982;2022-12-07T03:28:24;47.92;;;24.80;;
47365;SDS011;33105;47.964;7.982;2022-12-07T03:31:33;43.47;;;24.10;;
47365;SDS011;33105;47.964;7.982;2022-12-07T03:34:46;46.38;;;25.33;;
47365;SDS011;33105;47.964;7.982;2022-12-07T03:44:42;43.88;;;25.13;;
47365;SDS011;33105;47.964;7.982;2022-12-07T03:47:48;42.15;;;23.27;;
47365;SDS011;33105;47.964;7.982;2022-12-07T03:51:26;44.10;;;23.65;;
47365;SDS011;33105;47.964;7.982;2022-12-07T03:54:39;40.85;;;22.52;;
47365;SDS011;33105;47.964;7.982;2022-12-07T03:57:43;44.50;;;24.10;;
47365;SDS011;33105;47.964;7.982;2022-12-07T04:00:48;43.20;;;23.60;;
47365;SDS011;33105;47.964;7.982;2022-12-07T04:03:51;41.65;;;22.85;;
47365;SDS011;33105;47.964;7.982;2022-12-07T04:06:52;45.33;;;21.92;;
47365;SDS011;33105;47.964;7.982;2022-12-07T04:09:54;38.50;;;20.80;;
47365;SDS011;33105;47.964;7.982;2022-12-07T04:12:58;38.90;;;21.33;;
47365;SDS011;33105;47.964;7.982;2022-12-07T04:16:00;28.52;;;17.15;;
47365;SDS011;33105;47.964;7.982;2022-12-07T04:19:01;26.10;;;15.50;;
47365;SDS011;33105;47.964;7.982;2022-12-07T04:22:05;26.60;;;13.65;;
47365;SDS011;33105;47.964;7.982;2022-12-07T04:25:07;22.95;;;13.32;;
47365;SDS011;33105;47.964;7.982;2022-12-07T04:28:08;21.05;;;13.07;;
47365;SDS011;33105;47.964;7.982;2022-12-07T04:31:10;21.20;;;12.15;;
47365;SDS011;33105;47.964;7.982;2022-12-07T04:34:12;25.05;;;14.57;;
47365;SDS011;33105;47.964;7.982;2022-12-07T04:37:14;26.20;;;14.32;;
47365;SDS011;33105;47.964;7.982;2022-12-07T04:40:15;23.52;;;11.35;;
47365;SDS011;33105;47.964;7.982;2022-12-07T04:43:17;18.85;;;11.77;;
47365;SDS011;33105;47.964;7.982;2022-12-07T04:46:18;16.10;;;9.80;;
47365;SDS011;33105;47.964;7.982;2022-12-07T04:49:19;13.73;;;9.07;;
47365;SDS011;33105;47.964;7.982;2022-12-07T04:52:21;14.77;;;9.60;;
47365;SDS011;33105;47.964;7.982;2022-12-07T04:55:23;14.93;;;9.00;;
47365;SDS011;33105;47.964;7.982;2022-12-07T04:58:24;12.65;;;8.52;;
47365;SDS011;33105;47.964;7.982;2022-12-07T05:01:25;11.60;;;7.90;;
47365;SDS011;33105;47.964;7.982;2022-12-07T05:04:27;11.18;;;8.02;;
47365;SDS011;33105;47.964;7.982;2022-12-07T05:07:28;10.43;;;7.47;;
47365;SDS011;33105;47.964;7.982;2022-12-07T05:10:29;17.40;;;10.20;;
47365;SDS011;33105;47.964;7.982;2022-12-07T05:13:31;15.70;;;10.38;;
47365;SDS011;33105;47.964;7.982;2022-12-07T05:16:35;15.77;;;9.85;;
47365;SDS011;33105;47.964;7.982;2022-12-07T05:19:37;14.65;;;9.50;;
47365;SDS011;33105;47.964;7.982;2022-12-07T05:22:38;13.73;;;9.02;;
47365;SDS011;33105;47.964;7.982;2022-12-07T05:25:40;12.88;;;8.43;;
47365;SDS011;33105;47.964;7.982;2022-12-07T05:28:41;11.52;;;7.47;;
47365;SDS011;33105;47.964;7.982;2022-12-07T05:31:43;10.82;;;7.35;;
47365;SDS011;33105;47.964;7.982;2022-12-07T05:34:44;10.68;;;7.55;;
47365;SDS011;33105;47.964;7.982;2022-12-07T05:37:49;12.80;;;7.18;;
47365;SDS011;33105;47.964;7.982;2022-12-07T05:40:50;14.93;;;7.30;;
47365;SDS011;33105;47.964;7.982;2022-12-07T05:43:52;17.15;;;12.00;;
47365;SDS011;33105;47.964;7.982;2022-12-07T05:46:53;13.65;;;9.15;;
47365;SDS011;33105;47.964;7.982;2022-12-07T05:49:54;21.80;;;11.05;;
47365;SDS011;33105;47.964;7.982;2022-12-07T05:52:56;19.73;;;12.55;;
47365;SDS011;33105;47.964;7.982;2022-12-07T05:55:57;13.15;;;8.35;;
47365;SDS011;33105;47.964;7.982;2022-12-07T05:58:58;14.32;;;8.05;;
47365;SDS011;33105;47.964;7.982;2022-12-07T06:02:31;13.38;;;8.18;;
47365;SDS011;33105;47.964;7.982;2022-12-07T06:05:44;11.50;;;7.35;;
47365;SDS011;33105;47.964;7.982;2022-12-07T06:09:37;14.98;;;7.85;;
47365;SDS011;33105;47.964;7.982;2022-12-07T06:16:50;12.35;;;7.00;;
47365;SDS011;33105;47.964;7.982;2022-12-07T06:20:31;9.35;;;6.30;;
47365;SDS011;33105;47.964;7.982;2022-12-07T06:23:44;8.38;;;6.10;;
47365;SDS011;33105;47.964;7.982;2022-12-07T06:27:12;10.20;;;7.00;;
47365;SDS011;33105;47.964;7.982;2022-12-07T06:30:29;11.93;;;6.80;;
47365;SDS011;33105;47.964;7.982;2022-12-07T06:34:12;10.85;;;7.00;;
47365;SDS011;33105;47.964;7.982;2022-12-07T06:37:38;9.88;;;6.00;;
47365;SDS011;33105;47.964;7.982;2022-12-07T06:40:54;13.43;;;6.55;;
47365;SDS011;33105;47.964;7.982;2022-12-07T06:43:56;8.70;;;5.90;;
47365;SDS011;33105;47.964;7.982;2022-12-07T06:46:58;11.23;;;5.93;;
47365;SDS011;33105;47.964;7.982;2022-12-07T06:49:59;12.18;;;5.10;;
47365;SDS011;33105;47.964;7.982;2022-12-07T06:53:05;7.90;;;5.05;;
47365;SDS011;33105;47.964;7.982;2022-12-07T06:56:06;9.13;;;5.72;;
47365;SDS011;33105;47.964;7.982;2022-12-07T06:59:08;9.93;;;5.43;;
47365;SDS011;33105;47.964;7.982;2022-12-07T07:02:09;9.15;;;5.82;;
47365;SDS011;33105;47.964;7.982;2022-12-07T07:05:10;11.27;;;6.50;;
47365;SDS011;33105;47.964;7.982;2022-12-07T07:08:12;8.70;;;5.03;;
47365;SDS011;33105;47.964;7.982;2022-12-07T07:11:14;9.90;;;4.70;;
47365;SDS011;33105;47.964;7.982;2022-12-07T07:14:15;7.13;;;4.30;;
47365;SDS011;33105;47.964;7.982;2022-12-07T07:17:19;9.40;;;5.50;;
47365;SDS011;33105;47.964;7.982;2022-12-07T07:20:21;7.78;;;5.07;;
47365;SDS011;33105;47.964;7.982;2022-12-07T07:23:23;10.27;;;6.03;;
47365;SDS011;33105;47.964;7.982;2022-12-07T07:26:24;12.60;;;6.55;;
47365;SDS011;33105;47.964;7.982;2022-12-07T07:29:25;8.95;;;6.20;;
47365;SDS011;33105;47.964;7.982;2022-12-07T07:32:27;9.75;;;6.47;;
47365;SDS011;33105;47.964;7.982;2022-12-07T07:35:29;11.95;;;6.80;;
47365;SDS011;33105;47.964;7.982;2022-12-07T07:38:31;11.65;;;6.05;;
47365;SDS011;33105;47.964;7.982;2022-12-07T07:41:32;11.48;;;7.05;;
47365;SDS011;33105;47.964;7.982;2022-12-07T07:44:34;13.30;;;7.38;;
47365;SDS011;33105;47.964;7.982;2022-12-07T07:47:36;10.63;;;6.28;;
47365;SDS011;33105;47.964;7.982;2022-12-07T07:50:37;10.93;;;6.32;;
47365;SDS011;33105;47.964;7.982;2022-12-07T07:53:38;7.88;;;5.32;;
47365;SDS011;33105;47.964;7.982;2022-12-07T07:56:39;7.55;;;4.80;;
47365;SDS011;33105;47.964;7.982;2022-12-07T07:59:40;8.57;;;4.50;;
47365;SDS011;33105;47.964;7.982;2022-12-07T08:02:42;7.70;;;5.20;;
47365;SDS011;33105;47.964;7.982;2022-12-07T08:05:44;7.72;;;5.40;;
47365;SDS011;33105;47.964;7.982;2022-12-07T08:08:45;11.43;;;7.30;;
47365;SDS011;33105;47.964;7.982;2022-12-07T08:11:47;8.80;;;5.43;;
47365;SDS011;33105;47.964;7.982;2022-12-07T08:14:48;7.05;;;4.60;;
47365;SDS011;33105;47.964;7.982;2022-12-07T08:17:49;7.15;;;4.53;;
47365;SDS011;33105;47.964;7.982;2022-12-07T08:20:50;10.23;;;4.70;;
47365;SDS011;33105;47.964;7.982;2022-12-07T08:23:52;7.75;;;4.85;;
47365;SDS011;33105;47.964;7.982;2022-12-07T08:26:53;11.48;;;6.18;;
47365;SDS011;33105;47.964;7.982;2022-12-07T08:29:54;8.73;;;5.47;;
47365;SDS011;33105;47.964;7.982;2022-12-07T08:32:56;13.38;;;5.68;;
47365;SDS011;33105;47.964;7.982;2022-12-07T08:36:04;6.75;;;4.65;;
47365;SDS011;33105;47.964;7.982;2022-12-07T08:39:08;6.40;;;4.65;;
47365;SDS011;33105;47.964;7.982;2022-12-07T08:42:09;7.72;;;5.13;;
47365;SDS011;33105;47.964;7.982;2022-12-07T08:45:11;9.63;;;4.68;;
47365;SDS011;33105;47.964;7.982;2022-12-07T08:48:14;10.35;;;5.13;;
47365;SDS011;33105;47.964;7.982;2022-12-07T08:51:18;10.48;;;6.43;;
47365;SDS011;33105;47.964;7.982;2022-12-07T08:54:22;7.10;;;4.85;;
47365;SDS011;33105;47.964;7.982;2022-12-07T08:57:36;10.02;;;5.50;;
47365;SDS011;33105;47.964;7.982;2022-12-07T09:00:39;8.13;;;5.35;;
47365;SDS011;33105;47.964;7.982;2022-12-07T09:03:41;9.57;;;5.65;;
47365;SDS011;33105;47.964;7.982;2022-12-07T09:07:15;10.45;;;7.22;;
47365;SDS011;33105;47.964;7.982;2022-12-07T09:10:29;12.35;;;7.82;;
47365;SDS011;33105;47.964;7.982;2022-12-07T09:14:01;11.95;;;7.43;;
47365;SDS011;33105;47.964;7.982;2022-12-07T09:17:06;13.77;;;7.20;;
47365;SDS011;33105;47.964;7.982;2022-12-07T09:20:25;8.50;;;5.15;;
47365;SDS011;33105;47.964;7.982;2022-12-07T09:32:03;7.40;;;4.90;;
47365;SDS011;33105;47.964;7.982;2022-12-07T09:52:58;5.18;;;4.00;;
47365;SDS011;33105;47.964;7.982;2022-12-07T09:56:37;5.53;;;4.15;;
47365;SDS011;33105;47.964;7.982;2022-12-07T10:04:39;6.13;;;3.80;;
47365;SDS011;33105;47.964;7.982;2022-12-07T10:07:54;5.50;;;3.20;;
47365;SDS011;33105;47.964;7.982;2022-12-07T10:12:04;4.57;;;3.10;;
47365;SDS011;33105;47.964;7.982;2022-12-07T10:19:32;6.90;;;5.00;;
47365;SDS011;33105;47.964;7.982;2022-12-07T10:22:34;7.60;;;5.03;;
47365;SDS011;33105;47.964;7.982;2022-12-07T10:25:37;8.82;;;5.63;;
47365;SDS011;33105;47.964;7.982;2022-12-07T10:29:01;7.75;;;5.43;;
47365;SDS011;33105;47.964;7.982;2022-12-07T10:35:23;4.68;;;3.75;;
47365;SDS011;33105;47.964;7.982;2022-12-07T10:38:33;7.30;;;3.47;;
47365;SDS011;33105;47.964;7.982;2022-12-07T10:42:20;4.38;;;3.40;;
47365;SDS011;33105;47.964;7.982;2022-12-07T11:31:19;3.20;;;2.80;;
47365;SDS011;33105;47.964;7.982;2022-12-07T11:47:47;3.38;;;2.67;;
47365;SDS011;33105;47.964;7.982;2022-12-07T13:03:54;3.08;;;2.15;;
47365;SDS011;33105;47.964;7.982;2022-12-07T13:19:55;4.95;;;3.50;;
47365;SDS011;33105;47.964;7.982;2022-12-07T13:22:55;5.40;;;2.47;;
47365;SDS011;33105;47.964;7.982;2022-12-07T13:29:17;3.63;;;3.13;;
47365;SDS011;33105;47.964;7.982;2022-12-07T13:32:27;4.40;;;2.90;;
47365;SDS011;33105;47.964;7.982;2022-12-07T13:35:32;4.35;;;3.17;;
47365;SDS011;33105;47.964;7.982;2022-12-07T13:48:24;5.15;;;4.07;;
47365;SDS011;33105;47.964;7.982;2022-12-07T13:52:49;5.65;;;3.75;;
47365;SDS011;33105;47.964;7.982;2022-12-07T14:45:19;9.02;;;3.08;;
47365;SDS011;33105;47.964;7.982;2022-12-07T14:48:24;6.22;;;4.18;;
47365;SDS011;33105;47.964;7.982;2022-12-07T14:51:26;6.43;;;4.00;;
47365;SDS011;33105;47.964;7.982;2022-12-07T14:54:39;5.80;;;4.35;;
47365;SDS011;33105;47.964;7.982;2022-12-07T14:58:16;5.57;;;3.55;;
47365;SDS011;33105;47.964;7.982;2022-12-07T15:01:19;4.03;;;3.10;;
47365;SDS011;33105;47.964;7.982;2022-12-07T15:04:22;6.57;;;3.10;;
47365;SDS011;33105;47.964;7.982;2022-12-07T15:07:24;5.82;;;3.53;;
47365;SDS011;33105;47.964;7.982;2022-12-07T15:10:28;4.80;;;3.30;;
47365;SDS011;33105;47.964;7.982;2022-12-07T15:13:39;5.15;;;3.72;;
47365;SDS011;33105;47.964;7.982;2022-12-07T15:20:31;5.60;;;3.47;;
47365;SDS011;33105;47.964;7.982;2022-12-07T15:23:37;4.00;;;3.03;;
47365;SDS011;33105;47.964;7.982;2022-12-07T15:26:49;4.72;;;3.30;;
47365;SDS011;33105;47.964;7.982;2022-12-07T15:29:57;3.78;;;3.10;;
47365;SDS011;33105;47.964;7.982;2022-12-07T15:32:59;5.65;;;4.13;;
47365;SDS011;33105;47.964;7.982;2022-12-07T15:36:01;7.25;;;4.03;;
47365;SDS011;33105;47.964;7.982;2022-12-07T15:43:05;44.08;;;17.98;;
47365;SDS011;33105;47.964;7.982;2022-12-07T15:46:34;16.42;;;9.40;;
47365;SDS011;33105;47.964;7.982;2022-12-07T15:49:38;12.88;;;7.07;;
47365;SDS011;33105;47.964;7.982;2022-12-07T15:52:39;7.90;;;3.90;;
47365;SDS011;33105;47.964;7.982;2022-12-07T15:55:46;4.68;;;3.67;;
47365;SDS011;33105;47.964;7.982;2022-12-07T15:58:51;7.32;;;4.47;;
47365;SDS011;33105;47.964;7.982;2022-12-07T16:05:19;6.53;;;4.13;;
47365;SDS011;33105;47.964;7.982;2022-12-07T16:08:20;5.65;;;4.10;;
47365;SDS011;33105;47.964;7.982;2022-12-07T16:11:24;7.15;;;5.05;;
47365;SDS011;33105;47.964;7.982;2022-12-07T16:14:26;6.47;;;4.50;;
47365;SDS011;33105;47.964;7.982;2022-12-07T16:17:34;8.43;;;6.88;;
47365;SDS011;33105;47.964;7.982;2022-12-07T16:20:35;8.82;;;5.70;;
47365;SDS011;33105;47.964;7.982;2022-12-07T16:23:37;5.18;;;3.95;;
47365;SDS011;33105;47.964;7.982;2022-12-07T16:26:46;7.25;;;4.47;;
47365;SDS011;33105;47.964;7.982;2022-12-07T16:29:47;8.77;;;4.95;;
47365;SDS011;33105;47.964;7.982;2022-12-07T16:32:59;7.38;;;4.43;;
47365;SDS011;33105;47.964;7.982;2022-12-07T16:36:01;6.65;;;4.50;;
47365;SDS011;33105;47.964;7.982;2022-12-07T16:39:26;11.20;;;5.03;;
47365;SDS011;33105;47.964;7.982;2022-12-07T16:42:32;8.63;;;5.10;;
47365;SDS011;33105;47.964;7.982;2022-12-07T16:46:19;7.68;;;4.70;;
47365;SDS011;33105;47.964;7.982;2022-12-07T16:49:27;9.07;;;5.10;;
47365;SDS011;33105;47.964;7.982;2022-12-07T16:52:32;6.47;;;4.90;;
47365;SDS011;33105;47.964;7.982;2022-12-07T16:55:37;8.68;;;5.32;;
47365;SDS011;33105;47.964;7.982;2022-12-07T16:58:42;7.10;;;4.88;;
47365;SDS011;33105;47.964;7.982;2022-12-07T17:01:44;7.05;;;4.80;;
47365;SDS011;33105;47.964;7.982;2022-12-07T17:04:45;6.72;;;3.92;;
47365;SDS011;33105;47.964;7.982;2022-12-07T17:07:47;6.18;;;4.50;;
47365;SDS011;33105;47.964;7.982;2022-12-07T17:10:48;11.13;;;6.05;;
47365;SDS011;33105;47.964;7.982;2022-12-07T17:13:50;8.80;;;4.80;;
47365;SDS011;33105;47.964;7.982;2022-12-07T17:17:10;7.72;;;4.85;;
47365;SDS011;33105;47.964;7.982;2022-12-07T17:20:12;6.53;;;3.90;;
47365;SDS011;33105;47.964;7.982;2022-12-07T17:23:14;6.00;;;4.07;;
47365;SDS011;33105;47.964;7.982;2022-12-07T17:26:17;6.35;;;3.95;;
47365;SDS011;33105;47.964;7.982;2022-12-07T17:29:20;6.53;;;4.00;;
47365;SDS011;33105;47.964;7.982;2022-12-07T17:32:22;5.47;;;4.05;;
47365;SDS011;33105;47.964;7.982;2022-12-07T17:35:23;5.78;;;4.00;;
47365;SDS011;33105;47.964;7.982;2022-12-07T17:38:25;7.38;;;4.10;;
47365;SDS011;33105;47.964;7.982;2022-12-07T17:41:27;6.00;;;3.97;;
47365;SDS011;33105;47.964;7.982;2022-12-07T17:44:47;9.90;;;5.45;;
47365;SDS011;33105;47.964;7.982;2022-12-07T17:47:48;10.63;;;6.07;;
47365;SDS011;33105;47.964;7.982;2022-12-07T17:50:49;9.60;;;6.15;;
47365;SDS011;33105;47.964;7.982;2022-12-07T17:54:09;11.30;;;6.65;;
47365;SDS011;33105;47.964;7.982;2022-12-07T17:57:11;11.20;;;7.10;;
47365;SDS011;33105;47.964;7.982;2022-12-07T18:00:13;13.00;;;6.72;;
47365;SDS011;33105;47.964;7.982;2022-12-07T18:03:14;14.55;;;7.75;;
47365;SDS011;33105;47.964;7.982;2022-12-07T18:06:15;11.68;;;6.90;;
47365;SDS011;33105;47.964;7.982;2022-12-07T18:09:17;8.30;;;5.50;;
47365;SDS011;33105;47.964;7.982;2022-12-07T18:12:18;14.18;;;8.05;;
47365;SDS011;33105;47.964;7.982;2022-12-07T18:15:20;9.73;;;6.38;;
47365;SDS011;33105;47.964;7.982;2022-12-07T18:18:21;8.02;;;4.93;;
47365;SDS011;33105;47.964;7.982;2022-12-07T18:21:24;8.95;;;5.50;;
47365;SDS011;33105;47.964;7.982;2022-12-07T18:24:27;10.98;;;5.88;;
47365;SDS011;33105;47.964;7.982;2022-12-07T18:27:28;10.52;;;6.40;;
47365;SDS011;33105;47.964;7.982;2022-12-07T18:30:29;8.50;;;5.57;;
47365;SDS011;33105;47.964;7.982;2022-12-07T18:33:31;7.97;;;5.22;;
47365;SDS011;33105;47.964;7.982;2022-12-07T18:36:32;6.80;;;4.60;;
47365;SDS011;33105;47.964;7.982;2022-12-07T18:39:33;6.88;;;4.43;;
47365;SDS011;33105;47.964;7.982;2022-12-07T18:42:35;8.30;;;4.97;;
47365;SDS011;33105;47.964;7.982;2022-12-07T18:45:36;8.23;;;5.47;;
47365;SDS011;33105;47.964;7.982;2022-12-07T18:48:39;10.93;;;6.57;;
47365;SDS011;33105;47.964;7.982;2022-12-07T18:51:40;49.93;;;20.80;;
47365;SDS011;33105;47.964;7.982;2022-12-07T18:54:42;32.83;;;16.67;;
47365;SDS011;33105;47.964;7.982;2022-12-07T18:57:44;21.60;;;12.60;;
47365;SDS011;33105;47.964;7.982;2022-12-07T19:00:45;20.27;;;11.87;;
47365;SDS011;33105;47.964;7.982;2022-12-07T19:03:46;20.23;;;12.13;;
47365;SDS011;33105;47.964;7.982;2022-12-07T19:06:50;17.60;;;10.77;;
47365;SDS011;33105;47.964;7.982;2022-12-07T19:09:52;14.60;;;9.50;;
47365;SDS011;33105;47.964;7.982;2022-12-07T19:12:53;15.30;;;8.70;;
47365;SDS011;33105;47.964;7.982;2022-12-07T19:15:54;13.03;;;8.57;;
47365;SDS011;33105;47.964;7.982;2022-12-07T19:18:55;11.45;;;7.28;;
47365;SDS011;33105;47.964;7.982;2022-12-07T19:21:57;12.63;;;7.70;;
47365;SDS011;33105;47.964;7.982;2022-12-07T19:24:58;10.20;;;6.47;;
47365;SDS011;33105;47.964;7.982;2022-12-07T19:28:00;11.83;;;6.03;;
47365;SDS011;33105;47.964;7.982;2022-12-07T19:31:08;9.63;;;6.57;;
47365;SDS011;33105;47.964;7.982;2022-12-07T19:34:12;10.90;;;6.53;;
47365;SDS011;33105;47.964;7.982;2022-12-07T19:37:16;8.93;;;5.13;;
47365;SDS011;33105;47.964;7.982;2022-12-07T19:40:18;8.57;;;5.90;;
47365;SDS011;33105;47.964;7.982;2022-12-07T19:43:19;9.43;;;5.67;;
47365;SDS011;33105;47.964;7.982;2022-12-07T19:46:20;10.43;;;6.43;;
47365;SDS011;33105;47.964;7.982;2022-12-07T19:49:22;9.83;;;5.87;;
47365;SDS011;33105;47.964;7.982;2022-12-07T19:52:25;11.97;;;7.47;;
47365;SDS011;33105;47.964;7.982;2022-12-07T19:55:26;13.43;;;7.67;;
47365;SDS011;33105;47.964;7.982;2022-12-07T19:58:27;12.40;;;7.17;;
47365;SDS011;33105;47.964;7.982;2022-12-07T20:01:29;10.83;;;6.13;;
47365;SDS011;33105;47.964;7.982;2022-12-07T20:04:30;14.20;;;7.50;;
47365;SDS011;33105;47.964;7.982;2022-12-07T20:07:35;14.93;;;7.40;;
47365;SDS011;33105;47.964;7.982;2022-12-07T20:10:38;13.57;;;7.77;;
47365;SDS011;33105;47.964;7.982;2022-12-07T20:13:40;13.40;;;6.90;;
47365;SDS011;33105;47.964;7.982;2022-12-07T20:16:41;15.33;;;8.20;;
47365;SDS011;33105;47.964;7.982;2022-12-07T20:19:45;14.07;;;7.13;;
47365;SDS011;33105;47.964;7.982;2022-12-07T20:22:46;13.23;;;8.00;;
47365;SDS011;33105;47.964;7.982;2022-12-07T20:25:48;13.30;;;7.67;;
47365;SDS011;33105;47.964;7.982;2022-12-07T20:28:49;10.93;;;7.07;;
47365;SDS011;33105;47.964;7.982;2022-12-07T20:31:51;12.93;;;6.73;;
47365;SDS011;33105;47.964;7.982;2022-12-07T20:34:54;12.53;;;6.97;;
47365;SDS011;33105;47.964;7.982;2022-12-07T20:37:55;13.00;;;6.60;;
47365;SDS011;33105;47.964;7.982;2022-12-07T20:41:00;10.23;;;5.97;;
47365;SDS011;33105;47.964;7.982;2022-12-07T20:44:03;11.27;;;5.43;;
47365;SDS011;33105;47.964;7.982;2022-12-07T20:47:05;10.10;;;6.40;;
47365;SDS011;33105;47.964;7.982;2022-12-07T20:50:06;9.57;;;6.13;;
47365;SDS011;33105;47.964;7.982;2022-12-07T20:53:08;10.93;;;6.30;;
47365;SDS011;33105;47.964;7.982;2022-12-07T20:56:16;7.87;;;6.00;;
47365;SDS011;33105;47.964;7.982;2022-12-07T20:59:19;7.63;;;5.05;;
47365;SDS011;33105;47.964;7.982;2022-12-07T21:02:20;9.07;;;5.18;;
47365;SDS011;33105;47.964;7.982;2022-12-07T21:05:24;10.60;;;6.00;;
47365;SDS011;33105;47.964;7.982;2022-12-07T21:08:26;10.00;;;5.50;;
47365;SDS011;33105;47.964;7.982;2022-12-07T21:11:27;11.83;;;6.80;;
47365;SDS011;33105;47.964;7.982;2022-12-07T21:14:30;17.90;;;8.73;;
47365;SDS011;33105;47.964;7.982;2022-12-07T21:17:31;13.52;;;6.93;;
47365;SDS011;33105;47.964;7.982;2022-12-07T21:20:32;14.77;;;7.43;;
47365;SDS011;33105;47.964;7.982;2022-12-07T21:23:34;10.17;;;5.53;;
47365;SDS011;33105;47.964;7.982;2022-12-07T21:26:36;8.93;;;5.82;;
47365;SDS011;33105;47.964;7.982;2022-12-07T21:29:37;10.77;;;6.50;;
47365;SDS011;33105;47.964;7.982;2022-12-07T21:32:39;10.60;;;5.30;;
47365;SDS011;33105;47.964;7.982;2022-12-07T21:35:40;10.02;;;5.55;;
47365;SDS011;33105;47.964;7.982;2022-12-07T21:38:41;13.87;;;6.90;;
47365;SDS011;33105;47.964;7.982;2022-12-07T21:41:43;11.95;;;5.65;;
47365;SDS011;33105;47.964;7.982;2022-12-07T21:44:44;8.15;;;5.28;;
47365;SDS011;33105;47.964;7.982;2022-12-07T21:47:45;9.93;;;5.70;;
47365;SDS011;33105;47.964;7.982;2022-12-07T21:50:46;10.57;;;5.45;;
47365;SDS011;33105;47.964;7.982;2022-12-07T21:53:48;11.38;;;7.25;;
47365;SDS011;33105;47.964;7.982;2022-12-07T21:56:49;14.73;;;7.43;;
47365;SDS011;33105;47.964;7.982;2022-12-07T21:59:51;15.73;;;8.00;;
47365;SDS011;33105;47.964;7.982;2022-12-07T22:02:52;15.73;;;8.77;;
47365;SDS011;33105;47.964;7.982;2022-12-07T22:06:00;11.85;;;7.25;;
47365;SDS011;33105;47.964;7.982;2022-12-07T22:09:02;12.45;;;5.97;;
47365;SDS011;33105;47.964;7.982;2022-12-07T22:12:04;10.15;;;6.07;;
47365;SDS011;33105;47.964;7.982;2022-12-07T22:15:06;11.47;;;6.87;;
47365;SDS011;33105;47.964;7.982;2022-12-07T22:18:09;12.68;;;6.88;;
47365;SDS011;33105;47.964;7.982;2022-12-07T22:21:10;12.00;;;6.60;;
47365;SDS011;33105;47.964;7.982;2022-12-07T22:24:12;10.07;;;7.00;;
47365;SDS011;33105;47.964;7.982;2022-12-07T22:27:13;8.63;;;5.60;;
47365;SDS011;33105;47.964;7.982;2022-12-07T22:30:15;11.15;;;6.20;;
47365;SDS011;33105;47.964;7.982;2022-12-07T22:33:16;10.68;;;6.22;;
47365;SDS011;33105;47.964;7.982;2022-12-07T22:36:18;8.27;;;5.60;;
47365;SDS011;33105;47.964;7.982;2022-12-07T22:39:19;10.85;;;5.65;;
47365;SDS011;33105;47.964;7.982;2022-12-07T22:42:20;12.23;;;6.95;;
47365;SDS011;33105;47.964;7.982;2022-12-07T22:45:21;9.82;;;5.70;;
47365;SDS011;33105;47.964;7.982;2022-12-07T22:48:23;10.57;;;5.13;;
47365;SDS011;33105;47.964;7.982;2022-12-07T22:51:26;8.52;;;5.13;;
47365;SDS011;33105;47.964;7.982;2022-12-07T22:54:29;11.82;;;6.43;;
47365;SDS011;33105;47.964;7.982;2022-12-07T22:57:30;11.18;;;5.75;;
47365;SDS011;33105;47.964;7.982;2022-12-07T23:00:31;11.10;;;5.85;;
47365;SDS011;33105;47.964;7.982;2022-12-07T23:03:33;10.77;;;5.85;;
47365;SDS011;33105;47.964;7.982;2022-12-07T23:06:34;6.55;;;4.35;;
47365;SDS011;33105;47.964;7.982;2022-12-07T23:09:38;7.35;;;4.53;;
47365;SDS011;33105;47.964;7.982;2022-12-07T23:12:39;6.70;;;4.15;;
47365;SDS011;33105;47.964;7.982;2022-12-07T23:16:01;7.03;;;4.15;;
47365;SDS011;33105;47.964;7.982;2022-12-07T23:19:11;6.68;;;4.40;;